createdAt,value
2022-08-29T00:00:28.072Z,6.90
2022-08-29T00:02:57.384Z,6.63
2022-08-29T00:05:31.269Z,7.13
2022-08-29T00:07:59.722Z,7.32
2022-08-29T00:10:28.318Z,6.53
2022-08-29T00:12:57.810Z,8.45
2022-08-29T00:15:25.901Z,9.27
2022-08-29T00:17:52.793Z,9.65
2022-08-29T00:20:30.172Z,9.98
2022-08-29T00:23:01.928Z,8.05
2022-08-29T00:25:28.803Z,6.63
2022-08-29T00:27:55.571Z,8.20
2022-08-29T00:30:22.634Z,9.10
2022-08-29T00:32:49.771Z,8.65
2022-08-29T00:35:23.764Z,6.45
2022-08-29T00:40:25.733Z,7.45
2022-08-29T00:42:52.740Z,8.88
2022-08-29T00:45:19.953Z,6.70
2022-08-29T00:47:54.411Z,7.60
2022-08-29T00:50:44.858Z,8.50
2022-08-29T00:53:16.060Z,9.05
2022-08-29T00:55:50.327Z,8.68
2022-08-29T00:58:39.695Z,8.30
2022-08-29T01:01:07.054Z,8.65
2022-08-29T01:03:36.667Z,8.52
2022-08-29T01:06:10.324Z,10.27
2022-08-29T01:08:37.206Z,7.05
2022-08-29T01:11:22.630Z,8.55
2022-08-29T01:13:52.899Z,7.00
2022-08-29T01:16:21.130Z,7.63
2022-08-29T01:18:53.323Z,8.18
2022-08-29T01:21:24.986Z,10.25
2022-08-29T01:24:04.260Z,7.38
2022-08-29T01:26:32.315Z,7.45
2022-08-29T01:28:59.315Z,9.32
2022-08-29T01:31:49.121Z,8.60
2022-08-29T01:34:22.845Z,8.55
2022-08-29T01:36:56.296Z,7.85
2022-08-29T01:39:28.768Z,6.45
2022-08-29T01:41:57.854Z,8.88
2022-08-29T01:44:27.947Z,8.75
2022-08-29T01:47:02.686Z,8.50
2022-08-29T01:49:34.935Z,7.25
2022-08-29T01:52:05.827Z,7.40
2022-08-29T01:54:34.260Z,7.55
2022-08-29T01:57:02.049Z,8.40
2022-08-29T01:59:30.493Z,6.32
2022-08-29T02:02:09.243Z,10.32
2022-08-29T02:04:36.209Z,6.22
2022-08-29T02:07:03.102Z,10.60
2022-08-29T02:09:30.895Z,6.97
2022-08-29T02:12:03.347Z,6.32
2022-08-29T02:14:30.471Z,8.88
2022-08-29T02:16:57.247Z,10.15
2022-08-29T02:19:24.072Z,8.55
2022-08-29T02:21:51.263Z,8.30
2022-08-29T02:24:26.355Z,7.57
2022-08-29T02:26:54.780Z,7.88
2022-08-29T02:29:21.618Z,7.35
2022-08-29T02:31:48.770Z,9.40
2022-08-29T02:34:15.846Z,8.95
2022-08-29T02:36:44.053Z,8.52
2022-08-29T02:39:11.897Z,10.07
2022-08-29T02:41:39.009Z,9.73
2022-08-29T02:44:06.488Z,11.60
2022-08-29T02:46:33.846Z,11.70
2022-08-29T02:49:01.490Z,7.05
2022-08-29T02:51:31.148Z,6.85
2022-08-29T02:53:58.466Z,8.35
2022-08-29T02:56:25.616Z,7.80
2022-08-29T02:58:52.669Z,8.60
2022-08-29T03:01:21.409Z,7.95
2022-08-29T03:03:50.357Z,9.23
2022-08-29T03:06:18.239Z,8.90
2022-08-29T03:08:45.170Z,6.75
2022-08-29T03:11:12.061Z,8.82
2022-08-29T03:13:38.874Z,8.18
2022-08-29T03:16:06.127Z,7.90
2022-08-29T03:18:33.093Z,7.90
2022-08-29T03:21:00.015Z,8.60
2022-08-29T03:23:27.140Z,6.85
2022-08-29T03:25:54.963Z,8.38
2022-08-29T03:28:21.939Z,7.07
2022-08-29T03:30:48.849Z,6.72
2022-08-29T03:33:15.686Z,7.68
2022-08-29T03:35:42.894Z,7.03
2022-08-29T03:38:09.814Z,7.28
2022-08-29T03:40:36.888Z,9.77
2022-08-29T03:43:03.827Z,8.00
2022-08-29T03:45:30.825Z,7.47
2022-08-29T03:47:57.695Z,6.88
2022-08-29T03:50:24.676Z,10.80
2022-08-29T03:52:51.951Z,8.23
2022-08-29T03:55:20.124Z,8.00
2022-08-29T03:57:47.360Z,6.68
2022-08-29T04:00:17.878Z,8.80
2022-08-29T04:02:46.883Z,9.70
2022-08-29T04:05:16.115Z,10.38
2022-08-29T04:07:42.882Z,10.52
2022-08-29T04:10:12.136Z,10.40
2022-08-29T04:12:39.218Z,13.18
2022-08-29T04:15:06.937Z,17.27
2022-08-29T04:17:34.482Z,23.33
2022-08-29T04:20:01.575Z,19.88
2022-08-29T04:22:28.363Z,15.25
2022-08-29T04:24:55.139Z,11.15
2022-08-29T04:27:21.948Z,11.02
2022-08-29T04:29:48.703Z,9.32
2022-08-29T04:32:16.630Z,10.60
2022-08-29T04:34:43.629Z,9.95
2022-08-29T04:37:10.567Z,11.68
2022-08-29T04:39:37.974Z,9.93
2022-08-29T04:42:05.116Z,8.88
2022-08-29T04:44:32.402Z,8.32
2022-08-29T04:46:59.205Z,8.63
2022-08-29T04:49:26.083Z,9.98
2022-08-29T04:51:53.894Z,10.02
2022-08-29T04:54:20.785Z,8.23
2022-08-29T04:56:47.713Z,9.18
2022-08-29T04:59:16.358Z,11.50
2022-08-29T05:01:43.593Z,11.82
2022-08-29T05:04:14.306Z,8.75
2022-08-29T05:06:41.971Z,9.38
2022-08-29T05:09:08.814Z,9.48
2022-08-29T05:11:35.657Z,8.60
2022-08-29T05:14:02.705Z,9.32
2022-08-29T05:16:30.602Z,9.07
2022-08-29T05:18:58.687Z,9.95
2022-08-29T05:21:28.184Z,10.80
2022-08-29T05:23:56.600Z,9.50
2022-08-29T05:26:24.026Z,13.27
2022-08-29T05:28:51.506Z,13.85
2022-08-29T05:31:18.668Z,11.43
2022-08-29T05:33:45.440Z,9.55
2022-08-29T05:36:12.524Z,10.32
2022-08-29T05:38:39.294Z,12.23
2022-08-29T05:41:07.464Z,8.57
2022-08-29T05:43:35.468Z,9.70
2022-08-29T05:46:04.519Z,10.60
2022-08-29T05:48:32.321Z,8.15
2022-08-29T05:50:59.889Z,10.13
2022-08-29T05:53:27.663Z,12.13
2022-08-29T05:55:55.978Z,8.60
2022-08-29T05:58:22.785Z,11.98
2022-08-29T06:00:49.710Z,12.15
2022-08-29T06:03:16.635Z,10.95
2022-08-29T06:05:43.780Z,10.02
2022-08-29T06:08:10.620Z,9.07
2022-08-29T06:10:42.142Z,9.98
2022-08-29T06:13:09.087Z,12.13
2022-08-29T06:15:36.117Z,9.68
2022-08-29T06:18:03.740Z,9.52
2022-08-29T06:20:31.146Z,9.23
2022-08-29T06:22:57.996Z,9.35
2022-08-29T06:25:40.572Z,10.65
2022-08-29T06:28:08.365Z,8.73
2022-08-29T06:30:35.316Z,10.05
2022-08-29T06:33:02.694Z,12.05
2022-08-29T06:35:30.001Z,8.90
2022-08-29T06:37:56.739Z,11.35
2022-08-29T06:40:23.682Z,9.82
2022-08-29T06:42:50.575Z,11.68
2022-08-29T06:45:17.582Z,9.70
2022-08-29T06:47:47.564Z,8.43
2022-08-29T06:50:15.815Z,10.45
2022-08-29T06:52:42.670Z,8.20
2022-08-29T06:55:13.638Z,9.90
2022-08-29T06:57:45.355Z,8.50
2022-08-29T07:00:21.827Z,9.43
2022-08-29T07:02:51.864Z,10.15
2022-08-29T07:05:20.787Z,9.55
2022-08-29T07:07:47.696Z,11.93
2022-08-29T07:10:18.684Z,10.90
2022-08-29T07:15:15.428Z,10.00
2022-08-29T07:17:42.573Z,10.55
2022-08-29T07:20:10.185Z,8.07
2022-08-29T07:22:37.291Z,9.07
2022-08-29T07:25:04.347Z,8.10
2022-08-29T07:27:31.855Z,9.27
2022-08-29T07:30:02.570Z,8.40
2022-08-29T07:32:30.138Z,8.20
2022-08-29T07:34:56.926Z,8.85
2022-08-29T07:37:24.501Z,8.35
2022-08-29T07:39:51.487Z,7.35
2022-08-29T07:42:18.252Z,9.20
2022-08-29T07:44:44.998Z,8.18
2022-08-29T07:47:11.831Z,8.65
2022-08-29T07:49:41.563Z,6.97
2022-08-29T07:52:08.861Z,6.75
2022-08-29T07:54:35.762Z,6.05
2022-08-29T07:57:02.558Z,6.97
2022-08-29T07:59:31.310Z,6.80
2022-08-29T08:01:58.109Z,6.40
2022-08-29T08:04:26.116Z,7.57
2022-08-29T08:06:52.953Z,6.97
2022-08-29T08:09:19.742Z,10.10
2022-08-29T08:11:46.760Z,7.00
2022-08-29T08:14:13.867Z,7.20
2022-08-29T08:16:44.339Z,7.32
2022-08-29T08:19:13.724Z,7.90
2022-08-29T08:21:49.049Z,7.28
2022-08-29T08:24:19.539Z,6.72
2022-08-29T08:26:47.209Z,7.93
2022-08-29T08:29:14.038Z,8.45
2022-08-29T08:31:46.018Z,7.38
2022-08-29T08:34:15.708Z,6.88
2022-08-29T08:36:44.883Z,8.18
2022-08-29T08:39:13.285Z,7.85
2022-08-29T08:41:49.982Z,8.05
2022-08-29T08:44:22.554Z,10.00
2022-08-29T08:46:52.552Z,10.25
2022-08-29T08:49:25.748Z,9.60
2022-08-29T08:51:58.582Z,7.60
2022-08-29T08:54:28.214Z,8.93
2022-08-29T08:57:03.267Z,10.05
2022-08-29T08:59:43.529Z,8.43
2022-08-29T09:02:28.490Z,14.80
2022-08-29T09:05:34.196Z,9.43
2022-08-29T09:08:29.267Z,9.60
2022-08-29T09:11:29.858Z,8.15
2022-08-29T09:14:28.392Z,9.30
2022-08-29T09:16:58.793Z,9.10
2022-08-29T09:19:26.467Z,7.72
2022-08-29T09:21:59.876Z,10.43
2022-08-29T09:24:49.964Z,7.35
2022-08-29T09:27:22.835Z,7.78
2022-08-29T09:30:04.681Z,8.38
2022-08-29T09:32:32.040Z,9.30
2022-08-29T09:35:15.200Z,7.30
2022-08-29T09:37:42.008Z,7.63
2022-08-29T09:40:16.553Z,9.10
2022-08-29T09:43:01.459Z,7.20
2022-08-29T09:45:28.692Z,12.15
2022-08-29T09:48:14.442Z,7.50
2022-08-29T09:50:41.453Z,7.20
2022-08-29T09:53:24.721Z,6.93
2022-08-29T09:58:20.008Z,9.02
2022-08-29T10:01:26.957Z,7.25
2022-08-29T10:04:02.530Z,7.28
2022-08-29T10:06:45.261Z,6.72
2022-08-29T10:09:26.705Z,6.60
2022-08-29T10:12:03.592Z,9.30
2022-08-29T10:14:38.635Z,6.55
2022-08-29T10:17:57.124Z,6.60
2022-08-29T10:20:33.891Z,7.50
2022-08-29T10:23:14.185Z,7.85
2022-08-29T10:25:41.642Z,6.63
2022-08-29T10:28:28.481Z,6.78
2022-08-29T10:31:26.212Z,7.32
2022-08-29T10:34:12.456Z,6.90
2022-08-29T10:36:41.121Z,8.38
2022-08-29T10:39:28.902Z,5.82
2022-08-29T10:42:19.502Z,8.13
2022-08-29T10:45:15.581Z,6.18
2022-08-29T10:47:56.815Z,6.10
2022-08-29T10:50:49.673Z,6.25
2022-08-29T10:53:21.058Z,5.95
2022-08-29T10:56:04.426Z,6.22
2022-08-29T10:59:00.660Z,5.88
2022-08-29T11:04:23.966Z,6.25
2022-08-29T11:07:17.799Z,8.27
2022-08-29T11:10:01.026Z,7.35
2022-08-29T11:12:46.295Z,5.57
2022-08-29T11:15:26.372Z,5.97
2022-08-29T11:18:01.875Z,5.53
2022-08-29T11:20:38.714Z,5.93
2022-08-29T11:23:27.602Z,6.15
2022-08-29T11:25:56.556Z,5.03
2022-08-29T11:28:35.054Z,5.93
2022-08-29T11:31:24.673Z,5.47
2022-08-29T11:34:18.044Z,8.05
2022-08-29T11:37:14.447Z,5.22
2022-08-29T11:39:57.196Z,5.47
2022-08-29T11:45:35.620Z,7.53
2022-08-29T11:48:18.342Z,5.22
2022-08-29T11:50:45.978Z,6.25
2022-08-29T11:53:33.859Z,5.03
2022-08-29T11:56:13.066Z,5.60
2022-08-29T11:58:46.343Z,6.53
2022-08-29T12:03:54.278Z,7.90
2022-08-29T12:06:46.080Z,6.38
2022-08-29T12:09:13.835Z,6.43
2022-08-29T12:11:59.337Z,5.43
2022-08-29T12:14:37.965Z,6.22
2022-08-29T12:17:51.189Z,5.43
2022-08-29T12:20:47.589Z,5.05
2022-08-29T12:23:14.432Z,4.95
2022-08-29T12:25:44.908Z,5.00
2022-08-29T12:28:27.943Z,4.95
2022-08-29T12:31:07.056Z,6.30
2022-08-29T12:34:13.159Z,6.38
2022-08-29T12:37:13.936Z,5.40
2022-08-29T12:40:21.424Z,6.20
2022-08-29T12:43:07.020Z,5.13
2022-08-29T12:45:36.286Z,5.47
2022-08-29T12:48:11.473Z,5.25
2022-08-29T12:50:45.190Z,5.35
2022-08-29T12:53:34.857Z,4.90
2022-08-29T12:56:18.316Z,4.97
2022-08-29T12:58:54.688Z,6.45
2022-08-29T13:01:33.321Z,5.57
2022-08-29T13:04:05.010Z,5.30
2022-08-29T13:06:33.492Z,4.80
2022-08-29T13:09:00.831Z,5.18
2022-08-29T13:11:30.283Z,4.65
2022-08-29T13:14:08.909Z,4.70
2022-08-29T13:16:35.737Z,5.47
2022-08-29T13:19:14.124Z,5.15
2022-08-29T13:21:40.993Z,4.55
2022-08-29T13:24:19.583Z,5.15
2022-08-29T13:27:04.195Z,5.22
2022-08-29T13:29:42.225Z,4.75
2022-08-29T13:32:23.178Z,4.60
2022-08-29T13:35:20.612Z,5.63
2022-08-29T13:38:18.074Z,4.80
2022-08-29T13:40:49.877Z,5.03
2022-08-29T13:43:43.312Z,5.07
2022-08-29T13:46:15.082Z,4.20
2022-08-29T13:48:42.815Z,6.53
2022-08-29T13:51:09.889Z,4.85
2022-08-29T13:53:37.532Z,4.68
2022-08-29T13:56:04.753Z,5.13
2022-08-29T13:58:32.414Z,5.65
2022-08-29T14:00:59.276Z,6.43
2022-08-29T14:03:26.478Z,4.20
2022-08-29T14:05:56.423Z,4.35
2022-08-29T14:08:24.548Z,5.25
2022-08-29T14:10:52.043Z,4.32
2022-08-29T14:13:18.829Z,4.20
2022-08-29T14:15:45.867Z,4.93
2022-08-29T14:18:12.898Z,5.63
2022-08-29T14:20:39.883Z,3.88
2022-08-29T14:23:07.122Z,7.57
2022-08-29T14:25:33.934Z,4.80
2022-08-29T14:28:00.793Z,4.60
2022-08-29T14:30:27.687Z,3.60
2022-08-29T14:32:54.513Z,4.22
2022-08-29T14:35:25.850Z,3.83
2022-08-29T14:37:54.248Z,3.80
2022-08-29T14:40:22.099Z,3.35
2022-08-29T14:42:49.246Z,4.70
2022-08-29T14:45:16.142Z,4.72
2022-08-29T14:47:45.403Z,5.38
2022-08-29T14:50:14.174Z,4.72
2022-08-29T14:52:42.349Z,4.40
2022-08-29T14:55:10.959Z,4.00
2022-08-29T14:57:38.149Z,5.10
2022-08-29T15:00:09.829Z,4.10
2022-08-29T15:02:36.656Z,3.80
2022-08-29T15:05:03.658Z,3.92
2022-08-29T15:07:30.485Z,3.70
2022-08-29T15:09:57.508Z,4.18
2022-08-29T15:12:27.855Z,5.03
2022-08-29T15:14:55.643Z,3.72
2022-08-29T15:17:23.619Z,3.70
2022-08-29T15:20:34.346Z,4.47
2022-08-29T15:22:38.038Z,4.70
2022-08-29T15:25:05.726Z,3.95
2022-08-29T15:27:33.104Z,4.65
2022-08-29T15:29:59.968Z,3.60
2022-08-29T15:32:26.773Z,3.75
2022-08-29T15:34:53.896Z,6.00
2022-08-29T15:37:20.715Z,3.53
2022-08-29T15:39:49.886Z,3.17
2022-08-29T15:42:28.627Z,3.60
2022-08-29T15:44:56.124Z,3.67
2022-08-29T15:47:26.218Z,3.42
2022-08-29T15:49:53.666Z,3.45
2022-08-29T15:52:20.764Z,6.03
2022-08-29T15:54:47.540Z,3.50
2022-08-29T15:57:14.366Z,2.92
2022-08-29T15:59:57.670Z,6.13
2022-08-29T16:02:26.417Z,3.30
2022-08-29T16:04:56.905Z,3.90
2022-08-29T16:07:29.237Z,4.20
2022-08-29T16:10:05.764Z,4.15
2022-08-29T16:12:38.134Z,4.38
2022-08-29T16:15:09.604Z,3.30
2022-08-29T16:17:37.272Z,3.60
2022-08-29T16:20:06.430Z,4.53
2022-08-29T16:22:34.004Z,3.80
2022-08-29T16:25:01.444Z,3.88
2022-08-29T16:27:28.356Z,3.78
2022-08-29T16:29:56.582Z,3.85
2022-08-29T16:32:23.882Z,5.50
2022-08-29T16:34:51.666Z,3.78
2022-08-29T16:37:18.985Z,5.03
2022-08-29T16:39:45.863Z,5.13
2022-08-29T16:42:12.603Z,3.40
2022-08-29T16:44:40.284Z,5.03
2022-08-29T16:47:07.337Z,3.55
2022-08-29T16:49:34.237Z,4.45
2022-08-29T16:52:01.157Z,5.10
2022-08-29T16:54:28.555Z,3.72
2022-08-29T16:56:57.104Z,3.80
2022-08-29T16:59:24.235Z,4.00
2022-08-29T17:01:54.055Z,4.45
2022-08-29T17:04:25.077Z,4.07
2022-08-29T17:06:52.446Z,4.43
2022-08-29T17:09:21.365Z,4.40
2022-08-29T17:11:49.216Z,4.80
2022-08-29T17:14:18.133Z,4.03
2022-08-29T17:16:47.125Z,4.15
2022-08-29T17:19:15.624Z,4.55
2022-08-29T17:21:43.106Z,4.30
2022-08-29T17:24:11.043Z,4.53
2022-08-29T17:26:41.013Z,4.75
2022-08-29T17:29:09.337Z,5.30
2022-08-29T17:31:38.927Z,6.68
2022-08-29T17:34:07.915Z,5.82
2022-08-29T17:36:36.693Z,4.80
2022-08-29T17:39:05.335Z,4.40
2022-08-29T17:41:37.414Z,5.10
2022-08-29T17:44:06.677Z,6.85
2022-08-29T17:46:33.513Z,6.78
2022-08-29T17:49:04.265Z,5.70
2022-08-29T17:51:33.986Z,5.85
2022-08-29T17:54:00.886Z,5.32
2022-08-29T17:56:38.672Z,4.18
2022-08-29T17:59:12.807Z,4.32
2022-08-29T18:01:39.913Z,5.20
2022-08-29T18:04:06.776Z,4.57
2022-08-29T18:06:33.755Z,5.22
2022-08-29T18:09:00.675Z,5.03
2022-08-29T18:11:27.604Z,4.85
2022-08-29T18:13:55.286Z,4.80
2022-08-29T18:16:22.185Z,5.00
2022-08-29T18:18:49.278Z,5.43
2022-08-29T18:21:18.623Z,7.95
2022-08-29T18:23:45.933Z,5.25
2022-08-29T18:26:13.920Z,8.55
2022-08-29T18:28:42.186Z,6.43
2022-08-29T18:31:09.700Z,5.03
2022-08-29T18:33:57.281Z,5.55
2022-08-29T18:36:25.977Z,5.07
2022-08-29T18:38:53.157Z,5.72
2022-08-29T18:41:20.040Z,5.30
2022-08-29T18:43:47.295Z,5.60
2022-08-29T18:46:14.249Z,6.43
2022-08-29T18:48:43.220Z,5.13
2022-08-29T18:51:10.372Z,6.13
2022-08-29T18:53:39.387Z,5.30
2022-08-29T18:56:07.129Z,6.40
2022-08-29T18:58:35.969Z,5.32
2022-08-29T19:01:26.934Z,5.97
2022-08-29T19:03:56.774Z,6.65
2022-08-29T19:06:25.881Z,6.40
2022-08-29T19:08:56.990Z,7.18
2022-08-29T19:11:24.599Z,7.75
2022-08-29T19:13:52.243Z,7.00
2022-08-29T19:16:20.786Z,7.88
2022-08-29T19:18:47.830Z,6.90
2022-08-29T19:21:14.646Z,7.53
2022-08-29T19:23:44.404Z,6.60
2022-08-29T19:26:20.176Z,6.85
2022-08-29T19:28:47.045Z,6.88
2022-08-29T19:31:16.372Z,6.85
2022-08-29T19:33:45.037Z,7.20
2022-08-29T19:36:12.063Z,7.30
2022-08-29T19:38:41.327Z,11.35
2022-08-29T19:41:15.585Z,12.55
2022-08-29T19:43:42.762Z,7.35
2022-08-29T19:46:22.082Z,6.18
2022-08-29T19:48:51.201Z,6.93
2022-08-29T19:51:19.809Z,6.05
2022-08-29T19:53:48.464Z,6.80
2022-08-29T19:56:15.315Z,8.65
2022-08-29T19:58:42.728Z,7.15
2022-08-29T20:01:10.374Z,6.55
2022-08-29T20:03:39.394Z,8.70
2022-08-29T20:06:06.989Z,6.50
2022-08-29T20:08:39.776Z,7.32
2022-08-29T20:11:06.802Z,7.15
2022-08-29T20:13:35.753Z,6.57
2022-08-29T20:16:10.147Z,7.45
2022-08-29T20:18:39.769Z,9.00
2022-08-29T20:21:07.016Z,8.07
2022-08-29T20:23:33.798Z,6.63
2022-08-29T20:26:01.628Z,8.02
2022-08-29T20:28:30.517Z,9.32
2022-08-29T20:30:58.098Z,9.02
2022-08-29T20:33:25.881Z,6.50
2022-08-29T20:36:11.634Z,7.28
2022-08-29T20:38:38.488Z,8.43
2022-08-29T20:41:05.524Z,7.82
2022-08-29T20:43:32.467Z,6.35
2022-08-29T20:45:59.979Z,7.03
2022-08-29T20:48:31.280Z,7.25
2022-08-29T20:51:04.582Z,7.07
2022-08-29T20:53:33.182Z,8.30
2022-08-29T20:56:01.211Z,8.43
2022-08-29T20:58:30.176Z,7.30
2022-08-29T21:00:58.393Z,8.80
2022-08-29T21:03:44.289Z,7.60
2022-08-29T21:06:11.268Z,8.60
2022-08-29T21:08:39.842Z,9.48
2022-08-29T21:11:06.769Z,7.20
2022-08-29T21:13:33.564Z,7.35
2022-08-29T21:16:01.400Z,9.85
2022-08-29T21:18:28.205Z,8.85
2022-08-29T21:20:55.404Z,9.82
2022-08-29T21:23:24.560Z,7.72
2022-08-29T21:25:56.918Z,7.45
2022-08-29T21:28:25.495Z,7.75
2022-08-29T21:30:52.945Z,7.43
2022-08-29T21:33:20.351Z,8.73
2022-08-29T21:35:49.981Z,8.18
2022-08-29T21:38:17.557Z,7.50
2022-08-29T21:40:51.048Z,8.80
2022-08-29T21:45:46.496Z,8.65
2022-08-29T21:48:13.528Z,7.18
2022-08-29T21:50:40.320Z,9.10
2022-08-29T21:53:08.721Z,8.75
2022-08-29T21:55:35.584Z,8.50
2022-08-29T21:58:02.467Z,7.68
2022-08-29T22:00:32.616Z,7.10
2022-08-29T22:03:06.589Z,11.35
2022-08-29T22:05:33.713Z,6.88
2022-08-29T22:08:03.235Z,7.55
2022-08-29T22:10:34.074Z,9.48
2022-08-29T22:13:02.499Z,9.63
2022-08-29T22:15:48.204Z,7.70
2022-08-29T22:18:15.601Z,7.15
2022-08-29T22:20:44.119Z,7.97
2022-08-29T22:23:11.238Z,9.13
2022-08-29T22:25:38.023Z,9.48
2022-08-29T22:28:05.309Z,6.78
2022-08-29T22:30:32.718Z,8.73
2022-08-29T22:33:01.053Z,9.20
2022-08-29T22:35:28.572Z,8.85
2022-08-29T22:37:55.780Z,9.32
2022-08-29T22:40:23.547Z,9.77
2022-08-29T22:42:50.677Z,8.77
2022-08-29T22:45:18.437Z,10.32
2022-08-29T22:47:46.626Z,8.93
2022-08-29T22:50:18.853Z,9.20
2022-08-29T22:52:46.175Z,10.90
2022-08-29T22:55:15.421Z,8.10
2022-08-29T22:57:45.196Z,8.50
2022-08-29T23:00:17.380Z,8.82
2022-08-29T23:02:44.199Z,9.63
2022-08-29T23:05:11.728Z,8.40
2022-08-29T23:07:38.732Z,9.10
2022-08-29T23:10:08.073Z,10.07
2022-08-29T23:12:39.040Z,8.02
2022-08-29T23:15:09.992Z,7.68
2022-08-29T23:17:36.991Z,8.45
2022-08-29T23:20:06.068Z,8.27
2022-08-29T23:22:33.401Z,10.10
2022-08-29T23:25:00.530Z,9.40
2022-08-29T23:27:29.109Z,8.50
2022-08-29T23:29:56.406Z,7.85
2022-08-29T23:32:23.298Z,9.25
2022-08-29T23:34:50.125Z,8.85
2022-08-29T23:37:16.950Z,9.00
2022-08-29T23:39:43.812Z,8.75
2022-08-29T23:42:10.605Z,10.15
2022-08-29T23:44:37.412Z,8.77
2022-08-29T23:47:04.447Z,8.75
2022-08-29T23:49:31.462Z,9.93
2022-08-29T23:51:59.164Z,10.13
2022-08-29T23:54:26.146Z,8.93
2022-08-29T23:56:53.537Z,10.43
2022-08-29T23:59:38.987Z,11.30
